sensor_id;sensor_type;location;lat;lon;timestamp;P1;durP1;ratioP1;P2;durP2;ratioP2
44440;SDS011;30146;52.268;20.944;2023-07-22T00:01:01;6.00;;;5.40;;
44440;SDS011;30146;52.268;20.944;2023-07-22T00:03:33;7.70;;;5.80;;
44440;SDS011;30146;52.268;20.944;2023-07-22T00:06:05;7.70;;;5.20;;
44440;SDS011;30146;52.268;20.944;2023-07-22T00:08:37;8.00;;;5.60;;
44440;SDS011;30146;52.268;20.944;2023-07-22T00:11:09;9.10;;;4.90;;
44440;SDS011;30146;52.268;20.944;2023-07-22T00:13:40;6.10;;;5.20;;
44440;SDS011;30146;52.268;20.944;2023-07-22T00:16:12;8.20;;;5.20;;
44440;SDS011;30146;52.268;20.944;2023-07-22T00:18:43;6.30;;;5.20;;
44440;SDS011;30146;52.268;20.944;2023-07-22T00:21:13;5.70;;;5.10;;
44440;SDS011;30146;52.268;20.944;2023-07-22T00:23:45;7.60;;;5.20;;
44440;SDS011;30146;52.268;20.944;2023-07-22T00:26:16;8.40;;;5.60;;
44440;SDS011;30146;52.268;20.944;2023-07-22T00:28:48;5.80;;;4.90;;
44440;SDS011;30146;52.268;20.944;2023-07-22T00:31:19;6.70;;;5.20;;
44440;SDS011;30146;52.268;20.944;2023-07-22T00:33:50;7.30;;;5.80;;
44440;SDS011;30146;52.268;20.944;2023-07-22T00:36:21;7.60;;;5.80;;
44440;SDS011;30146;52.268;20.944;2023-07-22T00:38:53;9.90;;;6.20;;
44440;SDS011;30146;52.268;20.944;2023-07-22T00:41:25;10.10;;;5.70;;
44440;SDS011;30146;52.268;20.944;2023-07-22T00:43:57;10.40;;;6.00;;
44440;SDS011;30146;52.268;20.944;2023-07-22T00:46:28;7.60;;;5.20;;
44440;SDS011;30146;52.268;20.944;2023-07-22T00:48:59;6.30;;;5.70;;
44440;SDS011;30146;52.268;20.944;2023-07-22T00:51:30;6.40;;;5.40;;
44440;SDS011;30146;52.268;20.944;2023-07-22T00:54:01;5.90;;;5.30;;
44440;SDS011;30146;52.268;20.944;2023-07-22T00:56:33;7.70;;;5.50;;
44440;SDS011;30146;52.268;20.944;2023-07-22T00:59:06;6.40;;;5.20;;
44440;SDS011;30146;52.268;20.944;2023-07-22T01:01:37;7.80;;;6.40;;
44440;SDS011;30146;52.268;20.944;2023-07-22T01:04:09;11.50;;;5.50;;
44440;SDS011;30146;52.268;20.944;2023-07-22T01:06:44;7.50;;;5.70;;
44440;SDS011;30146;52.268;20.944;2023-07-22T01:09:15;7.30;;;6.10;;
44440;SDS011;30146;52.268;20.944;2023-07-22T01:11:46;7.60;;;6.10;;
44440;SDS011;30146;52.268;20.944;2023-07-22T01:14:17;7.60;;;5.80;;
44440;SDS011;30146;52.268;20.944;2023-07-22T01:16:48;8.90;;;6.10;;
44440;SDS011;30146;52.268;20.944;2023-07-22T01:19:19;10.70;;;6.60;;
44440;SDS011;30146;52.268;20.944;2023-07-22T01:21:51;7.20;;;6.00;;
44440;SDS011;30146;52.268;20.944;2023-07-22T01:24:23;7.70;;;5.90;;
44440;SDS011;30146;52.268;20.944;2023-07-22T01:26:54;7.60;;;6.20;;
44440;SDS011;30146;52.268;20.944;2023-07-22T01:29:26;7.90;;;6.10;;
44440;SDS011;30146;52.268;20.944;2023-07-22T01:31:57;8.60;;;6.80;;
44440;SDS011;30146;52.268;20.944;2023-07-22T01:34:28;7.60;;;6.40;;
44440;SDS011;30146;52.268;20.944;2023-07-22T01:37:00;7.40;;;6.40;;
44440;SDS011;30146;52.268;20.944;2023-07-22T01:39:32;9.90;;;6.80;;
44440;SDS011;30146;52.268;20.944;2023-07-22T01:42:03;10.20;;;6.70;;
44440;SDS011;30146;52.268;20.944;2023-07-22T01:44:35;9.40;;;6.80;;
44440;SDS011;30146;52.268;20.944;2023-07-22T01:47:06;9.10;;;6.90;;
44440;SDS011;30146;52.268;20.944;2023-07-22T01:49:37;11.10;;;7.80;;
44440;SDS011;30146;52.268;20.944;2023-07-22T01:52:08;9.20;;;8.00;;
44440;SDS011;30146;52.268;20.944;2023-07-22T01:54:39;9.70;;;7.40;;
44440;SDS011;30146;52.268;20.944;2023-07-22T01:57:10;8.80;;;7.90;;
44440;SDS011;30146;52.268;20.944;2023-07-22T01:59:41;8.20;;;7.20;;
44440;SDS011;30146;52.268;20.944;2023-07-22T02:02:13;9.30;;;7.10;;
44440;SDS011;30146;52.268;20.944;2023-07-22T02:04:44;9.00;;;8.10;;
44440;SDS011;30146;52.268;20.944;2023-07-22T02:07:15;11.50;;;9.80;;
44440;SDS011;30146;52.268;20.944;2023-07-22T02:09:46;10.40;;;8.30;;
44440;SDS011;30146;52.268;20.944;2023-07-22T02:12:20;9.70;;;7.20;;
44440;SDS011;30146;52.268;20.944;2023-07-22T02:14:51;10.30;;;7.60;;
44440;SDS011;30146;52.268;20.944;2023-07-22T02:17:22;10.60;;;7.60;;
44440;SDS011;30146;52.268;20.944;2023-07-22T02:19:53;11.90;;;7.10;;
44440;SDS011;30146;52.268;20.944;2023-07-22T02:22:24;11.40;;;6.90;;
44440;SDS011;30146;52.268;20.944;2023-07-22T02:24:55;11.80;;;7.70;;
44440;SDS011;30146;52.268;20.944;2023-07-22T02:27:26;9.40;;;7.80;;
44440;SDS011;30146;52.268;20.944;2023-07-22T02:29:57;10.70;;;8.10;;
44440;SDS011;30146;52.268;20.944;2023-07-22T02:32:28;13.40;;;7.60;;
44440;SDS011;30146;52.268;20.944;2023-07-22T02:35:00;17.00;;;8.20;;
44440;SDS011;30146;52.268;20.944;2023-07-22T02:37:31;8.60;;;7.10;;
44440;SDS011;30146;52.268;20.944;2023-07-22T02:40:02;11.90;;;8.50;;
44440;SDS011;30146;52.268;20.944;2023-07-22T02:42:36;8.60;;;7.80;;
44440;SDS011;30146;52.268;20.944;2023-07-22T02:45:08;10.60;;;7.60;;
44440;SDS011;30146;52.268;20.944;2023-07-22T02:47:40;11.00;;;8.20;;
44440;SDS011;30146;52.268;20.944;2023-07-22T02:50:11;10.70;;;7.00;;
44440;SDS011;30146;52.268;20.944;2023-07-22T02:52:42;8.80;;;7.90;;
44440;SDS011;30146;52.268;20.944;2023-07-22T02:55:14;9.20;;;7.80;;
44440;SDS011;30146;52.268;20.944;2023-07-22T02:57:47;9.00;;;8.10;;
44440;SDS011;30146;52.268;20.944;2023-07-22T03:00:19;9.60;;;7.90;;
44440;SDS011;30146;52.268;20.944;2023-07-22T03:02:53;10.20;;;8.40;;
44440;SDS011;30146;52.268;20.944;2023-07-22T03:05:29;12.70;;;8.70;;
44440;SDS011;30146;52.268;20.944;2023-07-22T03:08:02;10.20;;;8.80;;
44440;SDS011;30146;52.268;20.944;2023-07-22T03:10:35;9.90;;;8.90;;
44440;SDS011;30146;52.268;20.944;2023-07-22T03:13:06;12.30;;;9.40;;
44440;SDS011;30146;52.268;20.944;2023-07-22T03:15:37;9.30;;;8.20;;
44440;SDS011;30146;52.268;20.944;2023-07-22T03:18:08;9.60;;;8.60;;
44440;SDS011;30146;52.268;20.944;2023-07-22T03:20:39;11.20;;;9.20;;
44440;SDS011;30146;52.268;20.944;2023-07-22T03:23:10;9.90;;;8.80;;
44440;SDS011;30146;52.268;20.944;2023-07-22T03:25:41;9.60;;;8.60;;
44440;SDS011;30146;52.268;20.944;2023-07-22T03:28:12;9.90;;;8.90;;
44440;SDS011;30146;52.268;20.944;2023-07-22T03:30:44;10.80;;;9.20;;
44440;SDS011;30146;52.268;20.944;2023-07-22T03:33:15;10.60;;;8.70;;
44440;SDS011;30146;52.268;20.944;2023-07-22T03:35:47;10.50;;;8.90;;
44440;SDS011;30146;52.268;20.944;2023-07-22T03:38:18;10.40;;;9.10;;
44440;SDS011;30146;52.268;20.944;2023-07-22T03:40:49;14.20;;;9.20;;
44440;SDS011;30146;52.268;20.944;2023-07-22T03:43:21;9.90;;;8.90;;
44440;SDS011;30146;52.268;20.944;2023-07-22T03:45:52;9.40;;;8.30;;
44440;SDS011;30146;52.268;20.944;2023-07-22T03:48:23;10.40;;;8.30;;
44440;SDS011;30146;52.268;20.944;2023-07-22T03:50:54;11.80;;;7.90;;
44440;SDS011;30146;52.268;20.944;2023-07-22T03:53:43;9.20;;;7.40;;
44440;SDS011;30146;52.268;20.944;2023-07-22T03:56:15;9.10;;;7.30;;
44440;SDS011;30146;52.268;20.944;2023-07-22T03:58:46;10.20;;;7.80;;
44440;SDS011;30146;52.268;20.944;2023-07-22T04:01:20;9.90;;;8.10;;
44440;SDS011;30146;52.268;20.944;2023-07-22T04:03:51;11.30;;;8.20;;
44440;SDS011;30146;52.268;20.944;2023-07-22T04:06:22;10.70;;;8.00;;
44440;SDS011;30146;52.268;20.944;2023-07-22T04:08:54;23.50;;;13.30;;
44440;SDS011;30146;52.268;20.944;2023-07-22T04:11:25;14.40;;;10.00;;
44440;SDS011;30146;52.268;20.944;2023-07-22T04:13:56;15.20;;;8.40;;
44440;SDS011;30146;52.268;20.944;2023-07-22T04:16:27;10.90;;;7.00;;
44440;SDS011;30146;52.268;20.944;2023-07-22T04:18:59;10.90;;;8.00;;
44440;SDS011;30146;52.268;20.944;2023-07-22T04:21:30;11.00;;;7.40;;
44440;SDS011;30146;52.268;20.944;2023-07-22T04:24:01;7.90;;;6.90;;
44440;SDS011;30146;52.268;20.944;2023-07-22T04:26:32;11.60;;;8.40;;
44440;SDS011;30146;52.268;20.944;2023-07-22T04:29:03;8.70;;;7.30;;
44440;SDS011;30146;52.268;20.944;2023-07-22T04:31:37;8.50;;;7.40;;
44440;SDS011;30146;52.268;20.944;2023-07-22T04:34:08;9.40;;;8.20;;
44440;SDS011;30146;52.268;20.944;2023-07-22T04:36:40;8.40;;;7.60;;
44440;SDS011;30146;52.268;20.944;2023-07-22T04:39:12;8.90;;;7.30;;
44440;SDS011;30146;52.268;20.944;2023-07-22T04:41:43;10.00;;;7.60;;
44440;SDS011;30146;52.268;20.944;2023-07-22T04:44:14;14.30;;;7.80;;
44440;SDS011;30146;52.268;20.944;2023-07-22T04:46:45;10.40;;;7.80;;
44440;SDS011;30146;52.268;20.944;2023-07-22T04:49:16;11.30;;;7.20;;
44440;SDS011;30146;52.268;20.944;2023-07-22T04:51:47;10.30;;;7.90;;
44440;SDS011;30146;52.268;20.944;2023-07-22T04:54:19;10.30;;;7.70;;
44440;SDS011;30146;52.268;20.944;2023-07-22T04:56:50;9.00;;;7.90;;
44440;SDS011;30146;52.268;20.944;2023-07-22T04:59:20;13.10;;;8.20;;
44440;SDS011;30146;52.268;20.944;2023-07-22T05:01:51;12.90;;;8.30;;
44440;SDS011;30146;52.268;20.944;2023-07-22T05:04:22;10.90;;;8.50;;
44440;SDS011;30146;52.268;20.944;2023-07-22T05:06:53;8.70;;;7.70;;
44440;SDS011;30146;52.268;20.944;2023-07-22T05:09:25;11.10;;;8.40;;
44440;SDS011;30146;52.268;20.944;2023-07-22T05:11:56;9.70;;;7.50;;
44440;SDS011;30146;52.268;20.944;2023-07-22T05:14:27;11.20;;;8.20;;
44440;SDS011;30146;52.268;20.944;2023-07-22T05:16:58;9.40;;;8.20;;
44440;SDS011;30146;52.268;20.944;2023-07-22T05:19:29;8.40;;;7.20;;
44440;SDS011;30146;52.268;20.944;2023-07-22T05:22:00;10.30;;;7.70;;
44440;SDS011;30146;52.268;20.944;2023-07-22T05:24:31;13.00;;;8.40;;
44440;SDS011;30146;52.268;20.944;2023-07-22T05:27:03;9.90;;;7.60;;
44440;SDS011;30146;52.268;20.944;2023-07-22T05:29:37;12.40;;;9.30;;
44440;SDS011;30146;52.268;20.944;2023-07-22T05:32:08;18.20;;;8.30;;
44440;SDS011;30146;52.268;20.944;2023-07-22T05:34:58;8.90;;;7.90;;
44440;SDS011;30146;52.268;20.944;2023-07-22T05:37:32;12.10;;;7.70;;
44440;SDS011;30146;52.268;20.944;2023-07-22T05:40:03;11.00;;;6.90;;
44440;SDS011;30146;52.268;20.944;2023-07-22T05:42:36;9.50;;;7.50;;
44440;SDS011;30146;52.268;20.944;2023-07-22T05:45:08;9.60;;;6.90;;
44440;SDS011;30146;52.268;20.944;2023-07-22T05:47:41;9.70;;;7.10;;
44440;SDS011;30146;52.268;20.944;2023-07-22T05:50:13;7.40;;;6.70;;
44440;SDS011;30146;52.268;20.944;2023-07-22T05:52:44;9.60;;;6.80;;
44440;SDS011;30146;52.268;20.944;2023-07-22T05:55:16;9.00;;;6.80;;
44440;SDS011;30146;52.268;20.944;2023-07-22T05:57:47;7.40;;;6.70;;
44440;SDS011;30146;52.268;20.944;2023-07-22T06:00:18;9.90;;;7.00;;
44440;SDS011;30146;52.268;20.944;2023-07-22T06:02:49;7.40;;;6.60;;
44440;SDS011;30146;52.268;20.944;2023-07-22T06:05:20;6.90;;;5.80;;
44440;SDS011;30146;52.268;20.944;2023-07-22T06:07:51;8.50;;;6.20;;
44440;SDS011;30146;52.268;20.944;2023-07-22T06:10:25;7.50;;;6.70;;
44440;SDS011;30146;52.268;20.944;2023-07-22T06:12:56;7.10;;;6.20;;
44440;SDS011;30146;52.268;20.944;2023-07-22T06:15:27;11.30;;;6.40;;
44440;SDS011;30146;52.268;20.944;2023-07-22T06:17:58;7.20;;;6.10;;
44440;SDS011;30146;52.268;20.944;2023-07-22T06:20:29;11.60;;;6.30;;
44440;SDS011;30146;52.268;20.944;2023-07-22T06:23:00;7.50;;;5.70;;
44440;SDS011;30146;52.268;20.944;2023-07-22T06:25:31;8.00;;;5.50;;
44440;SDS011;30146;52.268;20.944;2023-07-22T06:28:02;9.50;;;6.20;;
44440;SDS011;30146;52.268;20.944;2023-07-22T06:30:34;8.40;;;5.60;;
44440;SDS011;30146;52.268;20.944;2023-07-22T06:33:05;8.40;;;4.90;;
44440;SDS011;30146;52.268;20.944;2023-07-22T06:35:36;6.60;;;4.80;;
44440;SDS011;30146;52.268;20.944;2023-07-22T06:38:07;6.00;;;4.60;;
44440;SDS011;30146;52.268;20.944;2023-07-22T06:40:38;15.50;;;4.70;;
44440;SDS011;30146;52.268;20.944;2023-07-22T06:43:09;7.10;;;4.60;;
44440;SDS011;30146;52.268;20.944;2023-07-22T06:45:40;6.90;;;4.80;;
44440;SDS011;30146;52.268;20.944;2023-07-22T06:48:11;8.10;;;3.80;;
44440;SDS011;30146;52.268;20.944;2023-07-22T06:50:47;6.20;;;3.70;;
44440;SDS011;30146;52.268;20.944;2023-07-22T06:53:19;5.40;;;3.50;;
44440;SDS011;30146;52.268;20.944;2023-07-22T06:55:50;5.70;;;3.40;;
44440;SDS011;30146;52.268;20.944;2023-07-22T06:58:22;3.70;;;3.30;;
44440;SDS011;30146;52.268;20.944;2023-07-22T07:00:55;5.20;;;4.00;;
44440;SDS011;30146;52.268;20.944;2023-07-22T07:03:26;3.90;;;3.50;;
44440;SDS011;30146;52.268;20.944;2023-07-22T07:05:58;8.60;;;3.80;;
44440;SDS011;30146;52.268;20.944;2023-07-22T07:08:30;4.70;;;3.30;;
44440;SDS011;30146;52.268;20.944;2023-07-22T07:11:01;4.10;;;3.20;;
44440;SDS011;30146;52.268;20.944;2023-07-22T07:13:32;5.40;;;3.70;;
44440;SDS011;30146;52.268;20.944;2023-07-22T07:18:52;4.70;;;4.00;;
44440;SDS011;30146;52.268;20.944;2023-07-22T07:21:23;7.40;;;3.80;;
44440;SDS011;30146;52.268;20.944;2023-07-22T07:23:55;6.00;;;4.00;;
44440;SDS011;30146;52.268;20.944;2023-07-22T07:26:26;8.30;;;4.00;;
44440;SDS011;30146;52.268;20.944;2023-07-22T07:28:57;6.80;;;4.00;;
44440;SDS011;30146;52.268;20.944;2023-07-22T07:31:28;3.40;;;3.10;;
44440;SDS011;30146;52.268;20.944;2023-07-22T07:34:00;6.10;;;3.70;;
44440;SDS011;30146;52.268;20.944;2023-07-22T07:36:33;6.50;;;3.50;;
44440;SDS011;30146;52.268;20.944;2023-07-22T07:39:04;5.60;;;3.00;;
44440;SDS011;30146;52.268;20.944;2023-07-22T07:41:35;6.20;;;3.30;;
44440;SDS011;30146;52.268;20.944;2023-07-22T07:44:07;9.20;;;3.40;;
44440;SDS011;30146;52.268;20.944;2023-07-22T07:46:38;4.60;;;3.30;;
44440;SDS011;30146;52.268;20.944;2023-07-22T07:49:09;4.90;;;2.70;;
44440;SDS011;30146;52.268;20.944;2023-07-22T07:51:41;4.20;;;2.70;;
44440;SDS011;30146;52.268;20.944;2023-07-22T07:54:12;5.10;;;2.80;;
44440;SDS011;30146;52.268;20.944;2023-07-22T07:56:42;2.90;;;2.60;;
44440;SDS011;30146;52.268;20.944;2023-07-22T07:59:14;7.70;;;2.90;;
44440;SDS011;30146;52.268;20.944;2023-07-22T08:01:45;6.30;;;2.60;;
44440;SDS011;30146;52.268;20.944;2023-07-22T08:04:16;5.80;;;2.50;;
44440;SDS011;30146;52.268;20.944;2023-07-22T08:06:47;6.60;;;2.30;;
44440;SDS011;30146;52.268;20.944;2023-07-22T08:09:20;5.90;;;3.10;;
44440;SDS011;30146;52.268;20.944;2023-07-22T08:11:51;4.00;;;2.50;;
44440;SDS011;30146;52.268;20.944;2023-07-22T08:14:22;2.50;;;2.00;;
44440;SDS011;30146;52.268;20.944;2023-07-22T08:16:53;6.50;;;2.40;;
44440;SDS011;30146;52.268;20.944;2023-07-22T08:19:24;3.00;;;1.90;;
44440;SDS011;30146;52.268;20.944;2023-07-22T08:21:55;4.00;;;2.30;;
44440;SDS011;30146;52.268;20.944;2023-07-22T08:24:26;4.20;;;2.20;;
44440;SDS011;30146;52.268;20.944;2023-07-22T08:26:57;3.80;;;2.40;;
44440;SDS011;30146;52.268;20.944;2023-07-22T08:29:28;6.60;;;2.10;;
44440;SDS011;30146;52.268;20.944;2023-07-22T08:31:59;4.00;;;1.80;;
44440;SDS011;30146;52.268;20.944;2023-07-22T08:34:30;4.00;;;2.00;;
44440;SDS011;30146;52.268;20.944;2023-07-22T08:37:01;3.70;;;2.10;;
44440;SDS011;30146;52.268;20.944;2023-07-22T08:39:32;3.50;;;2.10;;
44440;SDS011;30146;52.268;20.944;2023-07-22T08:42:04;5.10;;;2.30;;
44440;SDS011;30146;52.268;20.944;2023-07-22T08:44:37;6.60;;;2.10;;
44440;SDS011;30146;52.268;20.944;2023-07-22T08:47:14;5.90;;;2.30;;
44440;SDS011;30146;52.268;20.944;2023-07-22T08:49:49;3.80;;;2.60;;
44440;SDS011;30146;52.268;20.944;2023-07-22T08:52:24;2.50;;;1.70;;
44440;SDS011;30146;52.268;20.944;2023-07-22T08:54:55;3.00;;;1.90;;
44440;SDS011;30146;52.268;20.944;2023-07-22T08:57:28;6.40;;;2.40;;
44440;SDS011;30146;52.268;20.944;2023-07-22T09:00:00;6.40;;;2.40;;
44440;SDS011;30146;52.268;20.944;2023-07-22T09:02:34;4.80;;;2.20;;
44440;SDS011;30146;52.268;20.944;2023-07-22T09:05:06;3.90;;;2.20;;
44440;SDS011;30146;52.268;20.944;2023-07-22T09:07:38;4.70;;;2.40;;
44440;SDS011;30146;52.268;20.944;2023-07-22T09:10:10;4.50;;;2.10;;
44440;SDS011;30146;52.268;20.944;2023-07-22T09:12:42;7.20;;;4.20;;
44440;SDS011;30146;52.268;20.944;2023-07-22T09:15:14;5.30;;;2.70;;
44440;SDS011;30146;52.268;20.944;2023-07-22T09:17:45;3.40;;;2.40;;
44440;SDS011;30146;52.268;20.944;2023-07-22T09:20:16;4.50;;;2.20;;
44440;SDS011;30146;52.268;20.944;2023-07-22T09:22:48;2.90;;;1.90;;
44440;SDS011;30146;52.268;20.944;2023-07-22T09:25:40;5.90;;;2.50;;
44440;SDS011;30146;52.268;20.944;2023-07-22T09:28:12;5.80;;;2.10;;
44440;SDS011;30146;52.268;20.944;2023-07-22T09:30:43;4.20;;;2.30;;
44440;SDS011;30146;52.268;20.944;2023-07-22T09:33:20;3.50;;;2.00;;
44440;SDS011;30146;52.268;20.944;2023-07-22T09:35:55;6.60;;;2.40;;
44440;SDS011;30146;52.268;20.944;2023-07-22T09:38:26;5.10;;;2.30;;
44440;SDS011;30146;52.268;20.944;2023-07-22T09:40:57;4.40;;;2.30;;
44440;SDS011;30146;52.268;20.944;2023-07-22T09:43:29;4.00;;;2.30;;
44440;SDS011;30146;52.268;20.944;2023-07-22T09:46:06;4.30;;;2.40;;
44440;SDS011;30146;52.268;20.944;2023-07-22T09:48:42;4.00;;;2.10;;
44440;SDS011;30146;52.268;20.944;2023-07-22T09:51:14;2.70;;;2.00;;
44440;SDS011;30146;52.268;20.944;2023-07-22T09:53:47;6.10;;;2.20;;
44440;SDS011;30146;52.268;20.944;2023-07-22T09:56:29;4.30;;;2.30;;
44440;SDS011;30146;52.268;20.944;2023-07-22T09:59:02;3.30;;;1.90;;
44440;SDS011;30146;52.268;20.944;2023-07-22T10:01:34;3.90;;;2.30;;
44440;SDS011;30146;52.268;20.944;2023-07-22T10:04:07;3.10;;;2.20;;
44440;SDS011;30146;52.268;20.944;2023-07-22T10:06:39;6.00;;;1.80;;
44440;SDS011;30146;52.268;20.944;2023-07-22T10:09:11;4.50;;;2.10;;
44440;SDS011;30146;52.268;20.944;2023-07-22T10:11:44;3.20;;;1.80;;
44440;SDS011;30146;52.268;20.944;2023-07-22T10:14:15;2.80;;;1.70;;
44440;SDS011;30146;52.268;20.944;2023-07-22T10:16:48;3.10;;;1.50;;
44440;SDS011;30146;52.268;20.944;2023-07-22T10:19:20;2.80;;;1.70;;
44440;SDS011;30146;52.268;20.944;2023-07-22T10:21:54;1.90;;;1.50;;
44440;SDS011;30146;52.268;20.944;2023-07-22T10:24:25;4.20;;;1.50;;
44440;SDS011;30146;52.268;20.944;2023-07-22T10:26:56;2.00;;;1.50;;
44440;SDS011;30146;52.268;20.944;2023-07-22T10:29:27;3.30;;;1.70;;
44440;SDS011;30146;52.268;20.944;2023-07-22T10:32:00;3.70;;;1.80;;
44440;SDS011;30146;52.268;20.944;2023-07-22T10:34:32;8.40;;;1.60;;
44440;SDS011;30146;52.268;20.944;2023-07-22T10:37:04;3.00;;;1.80;;
44440;SDS011;30146;52.268;20.944;2023-07-22T10:39:38;2.80;;;1.50;;
44440;SDS011;30146;52.268;20.944;2023-07-22T10:42:09;2.90;;;1.40;;
44440;SDS011;30146;52.268;20.944;2023-07-22T10:44:54;4.10;;;2.10;;
44440;SDS011;30146;52.268;20.944;2023-07-22T10:47:35;2.60;;;1.60;;
44440;SDS011;30146;52.268;20.944;2023-07-22T10:50:07;5.10;;;1.70;;
44440;SDS011;30146;52.268;20.944;2023-07-22T10:52:39;1.80;;;1.50;;
44440;SDS011;30146;52.268;20.944;2023-07-22T10:55:16;3.00;;;1.60;;
44440;SDS011;30146;52.268;20.944;2023-07-22T10:57:53;3.00;;;1.60;;
44440;SDS011;30146;52.268;20.944;2023-07-22T11:00:24;5.20;;;2.40;;
44440;SDS011;30146;52.268;20.944;2023-07-22T11:03:12;1.90;;;1.60;;
44440;SDS011;30146;52.268;20.944;2023-07-22T11:05:51;5.30;;;1.90;;
44440;SDS011;30146;52.268;20.944;2023-07-22T11:08:36;1.60;;;1.50;;
44440;SDS011;30146;52.268;20.944;2023-07-22T11:11:09;2.30;;;1.50;;
44440;SDS011;30146;52.268;20.944;2023-07-22T11:13:41;2.20;;;1.50;;
44440;SDS011;30146;52.268;20.944;2023-07-22T11:16:12;2.10;;;1.70;;
44440;SDS011;30146;52.268;20.944;2023-07-22T11:18:46;2.30;;;1.90;;
44440;SDS011;30146;52.268;20.944;2023-07-22T11:21:17;6.00;;;2.00;;
44440;SDS011;30146;52.268;20.944;2023-07-22T11:23:48;3.70;;;1.70;;
44440;SDS011;30146;52.268;20.944;2023-07-22T11:26:20;2.60;;;1.80;;
44440;SDS011;30146;52.268;20.944;2023-07-22T11:28:51;2.20;;;1.70;;
44440;SDS011;30146;52.268;20.944;2023-07-22T11:31:22;1.70;;;1.40;;
44440;SDS011;30146;52.268;20.944;2023-07-22T11:33:59;1.70;;;1.50;;
44440;SDS011;30146;52.268;20.944;2023-07-22T11:36:30;2.80;;;1.80;;
44440;SDS011;30146;52.268;20.944;2023-07-22T11:39:04;2.10;;;1.90;;
44440;SDS011;30146;52.268;20.944;2023-07-22T11:41:36;7.00;;;1.70;;
44440;SDS011;30146;52.268;20.944;2023-07-22T11:44:10;3.70;;;1.80;;
44440;SDS011;30146;52.268;20.944;2023-07-22T11:46:49;3.10;;;1.90;;
44440;SDS011;30146;52.268;20.944;2023-07-22T11:49:24;1.90;;;1.60;;
44440;SDS011;30146;52.268;20.944;2023-07-22T11:51:56;3.40;;;2.20;;
44440;SDS011;30146;52.268;20.944;2023-07-22T11:54:29;2.60;;;1.60;;
44440;SDS011;30146;52.268;20.944;2023-07-22T11:57:10;2.90;;;1.70;;
44440;SDS011;30146;52.268;20.944;2023-07-22T11:59:44;7.40;;;1.90;;
44440;SDS011;30146;52.268;20.944;2023-07-22T12:02:16;4.50;;;1.90;;
44440;SDS011;30146;52.268;20.944;2023-07-22T12:04:52;5.00;;;1.90;;
44440;SDS011;30146;52.268;20.944;2023-07-22T12:07:26;3.60;;;1.80;;
44440;SDS011;30146;52.268;20.944;2023-07-22T12:09:59;2.80;;;1.80;;
44440;SDS011;30146;52.268;20.944;2023-07-22T12:12:34;6.40;;;2.00;;
44440;SDS011;30146;52.268;20.944;2023-07-22T12:15:08;2.20;;;1.80;;
44440;SDS011;30146;52.268;20.944;2023-07-22T12:17:47;3.10;;;1.90;;
44440;SDS011;30146;52.268;20.944;2023-07-22T12:20:22;5.10;;;2.80;;
44440;SDS011;30146;52.268;20.944;2023-07-22T12:22:55;3.10;;;2.00;;
44440;SDS011;30146;52.268;20.944;2023-07-22T12:25:27;2.10;;;1.90;;
44440;SDS011;30146;52.268;20.944;2023-07-22T12:27:58;2.30;;;2.10;;
44440;SDS011;30146;52.268;20.944;2023-07-22T12:30:29;3.70;;;2.40;;
44440;SDS011;30146;52.268;20.944;2023-07-22T12:33:00;11.60;;;2.50;;
44440;SDS011;30146;52.268;20.944;2023-07-22T12:35:32;2.50;;;1.90;;
44440;SDS011;30146;52.268;20.944;2023-07-22T12:38:03;2.60;;;1.90;;
44440;SDS011;30146;52.268;20.944;2023-07-22T12:40:34;2.30;;;1.80;;
44440;SDS011;30146;52.268;20.944;2023-07-22T12:43:05;5.00;;;1.90;;
44440;SDS011;30146;52.268;20.944;2023-07-22T12:45:36;4.90;;;1.90;;
44440;SDS011;30146;52.268;20.944;2023-07-22T12:48:08;5.70;;;2.20;;
44440;SDS011;30146;52.268;20.944;2023-07-22T12:50:39;7.40;;;2.00;;
44440;SDS011;30146;52.268;20.944;2023-07-22T12:53:10;10.80;;;4.30;;
44440;SDS011;30146;52.268;20.944;2023-07-22T12:55:41;2.70;;;1.80;;
44440;SDS011;30146;52.268;20.944;2023-07-22T12:58:13;4.70;;;2.00;;
44440;SDS011;30146;52.268;20.944;2023-07-22T13:00:44;5.00;;;3.50;;
44440;SDS011;30146;52.268;20.944;2023-07-22T13:03:15;3.60;;;1.90;;
44440;SDS011;30146;52.268;20.944;2023-07-22T13:05:46;2.40;;;1.90;;
44440;SDS011;30146;52.268;20.944;2023-07-22T13:08:17;2.00;;;1.80;;
44440;SDS011;30146;52.268;20.944;2023-07-22T13:10:48;3.40;;;2.20;;
44440;SDS011;30146;52.268;20.944;2023-07-22T13:13:19;2.30;;;2.10;;
44440;SDS011;30146;52.268;20.944;2023-07-22T13:15:50;3.80;;;2.00;;
44440;SDS011;30146;52.268;20.944;2023-07-22T13:18:22;3.40;;;2.10;;
44440;SDS011;30146;52.268;20.944;2023-07-22T13:20:53;3.70;;;2.10;;
44440;SDS011;30146;52.268;20.944;2023-07-22T13:23:24;2.20;;;1.80;;
44440;SDS011;30146;52.268;20.944;2023-07-22T13:25:55;3.70;;;2.20;;
44440;SDS011;30146;52.268;20.944;2023-07-22T13:28:26;6.80;;;3.10;;
44440;SDS011;30146;52.268;20.944;2023-07-22T13:30:57;6.80;;;2.40;;
44440;SDS011;30146;52.268;20.944;2023-07-22T13:33:28;2.50;;;1.90;;
44440;SDS011;30146;52.268;20.944;2023-07-22T13:35:59;3.20;;;1.90;;
44440;SDS011;30146;52.268;20.944;2023-07-22T13:38:30;10.30;;;1.80;;
44440;SDS011;30146;52.268;20.944;2023-07-22T13:41:03;5.50;;;2.10;;
44440;SDS011;30146;52.268;20.944;2023-07-22T13:43:34;3.20;;;1.70;;
44440;SDS011;30146;52.268;20.944;2023-07-22T13:46:05;3.50;;;2.00;;
44440;SDS011;30146;52.268;20.944;2023-07-22T13:48:36;3.80;;;1.90;;
44440;SDS011;30146;52.268;20.944;2023-07-22T13:51:07;2.90;;;1.80;;
44440;SDS011;30146;52.268;20.944;2023-07-22T13:53:38;3.00;;;2.40;;
44440;SDS011;30146;52.268;20.944;2023-07-22T13:56:09;4.40;;;2.10;;
44440;SDS011;30146;52.268;20.944;2023-07-22T13:58:40;6.30;;;2.10;;
44440;SDS011;30146;52.268;20.944;2023-07-22T14:01:12;2.80;;;1.90;;
44440;SDS011;30146;52.268;20.944;2023-07-22T14:03:44;5.70;;;2.10;;
44440;SDS011;30146;52.268;20.944;2023-07-22T14:06:15;7.00;;;2.00;;
44440;SDS011;30146;52.268;20.944;2023-07-22T14:08:46;6.90;;;2.20;;
44440;SDS011;30146;52.268;20.944;2023-07-22T14:11:18;5.00;;;2.30;;
44440;SDS011;30146;52.268;20.944;2023-07-22T14:13:49;2.90;;;2.00;;
44440;SDS011;30146;52.268;20.944;2023-07-22T14:16:20;3.40;;;2.00;;
44440;SDS011;30146;52.268;20.944;2023-07-22T14:18:51;4.10;;;2.20;;
44440;SDS011;30146;52.268;20.944;2023-07-22T14:21:23;5.60;;;2.40;;
44440;SDS011;30146;52.268;20.944;2023-07-22T14:23:54;2.60;;;2.00;;
44440;SDS011;30146;52.268;20.944;2023-07-22T14:26:25;3.80;;;2.40;;
44440;SDS011;30146;52.268;20.944;2023-07-22T14:28:56;3.00;;;2.10;;
44440;SDS011;30146;52.268;20.944;2023-07-22T14:31:27;4.40;;;2.50;;
44440;SDS011;30146;52.268;20.944;2023-07-22T14:33:59;4.80;;;1.90;;
44440;SDS011;30146;52.268;20.944;2023-07-22T14:36:30;5.60;;;1.80;;
44440;SDS011;30146;52.268;20.944;2023-07-22T14:39:01;7.50;;;2.40;;
44440;SDS011;30146;52.268;20.944;2023-07-22T14:41:33;6.40;;;2.60;;
44440;SDS011;30146;52.268;20.944;2023-07-22T14:44:04;8.90;;;2.50;;
44440;SDS011;30146;52.268;20.944;2023-07-22T14:46:35;3.50;;;2.00;;
44440;SDS011;30146;52.268;20.944;2023-07-22T14:49:06;4.50;;;2.60;;
44440;SDS011;30146;52.268;20.944;2023-07-22T14:51:38;3.80;;;2.30;;
44440;SDS011;30146;52.268;20.944;2023-07-22T14:54:09;4.80;;;2.30;;
44440;SDS011;30146;52.268;20.944;2023-07-22T14:56:40;6.30;;;2.50;;
44440;SDS011;30146;52.268;20.944;2023-07-22T14:59:13;2.40;;;2.20;;
44440;SDS011;30146;52.268;20.944;2023-07-22T15:01:45;6.20;;;2.10;;